createdAt,value
2017-11-23T00:00:11.860Z,97507.95
2017-11-23T00:02:40.957Z,97513.45
2017-11-23T00:05:10.124Z,97508.91
2017-11-23T00:07:38.396Z,97506.45
2017-11-23T00:10:06.681Z,97495.71
2017-11-23T00:12:36.542Z,97489.72
2017-11-23T00:15:04.867Z,97493.61
2017-11-23T00:17:33.179Z,97509.65
2017-11-23T00:20:02.276Z,97500.53
2017-11-23T00:22:31.367Z,97493.83
2017-11-23T00:24:59.631Z,97493.69
2017-11-23T00:27:27.921Z,97497.41
2017-11-23T00:29:56.241Z,97495.48
2017-11-23T00:32:24.536Z,97498.34
2017-11-23T00:34:52.821Z,97503.05
2017-11-23T00:37:21.115Z,97495.32
2017-11-23T00:39:49.389Z,97489.52
2017-11-23T00:42:17.680Z,97490.56
2017-11-23T00:44:46.026Z,97497.16
2017-11-23T00:47:14.345Z,97492.03
2017-11-23T00:49:42.621Z,97491.54
2017-11-23T00:52:11.931Z,97491.50
2017-11-23T00:54:40.240Z,97492.16
2017-11-23T00:57:08.536Z,97494.92
2017-11-23T00:59:39.003Z,97497.87
2017-11-23T01:02:07.333Z,97495.83
2017-11-23T01:04:35.622Z,97496.16
2017-11-23T01:07:03.912Z,97492.39
2017-11-23T01:09:32.217Z,97501.84
2017-11-23T01:12:00.775Z,97495.19
2017-11-23T01:14:29.093Z,97497.66
2017-11-23T01:16:58.195Z,97502.83
2017-11-23T01:19:28.268Z,97501.19
2017-11-23T01:22:01.914Z,97500.74
2017-11-23T01:24:31.060Z,97501.69
2017-11-23T01:26:59.853Z,97506.75
2017-11-23T01:29:28.145Z,97503.22
2017-11-23T01:31:56.453Z,97502.70
2017-11-23T01:34:24.831Z,97508.63
2017-11-23T01:36:53.998Z,97499.23
2017-11-23T01:39:22.317Z,97508.55
2017-11-23T01:41:51.416Z,97509.06
2017-11-23T01:44:20.604Z,97518.19
2017-11-23T01:46:48.923Z,97523.61
2017-11-23T01:49:17.369Z,97516.05
2017-11-23T01:51:46.432Z,97511.57
2017-11-23T01:54:14.847Z,97510.67
2017-11-23T01:56:43.937Z,97500.87
2017-11-23T01:59:12.214Z,97508.80
2017-11-23T02:01:40.549Z,97501.69
2017-11-23T02:04:08.917Z,97510.83
2017-11-23T02:06:37.243Z,97505.02
2017-11-23T02:09:05.514Z,97504.53
2017-11-23T02:11:33.807Z,97505.44
2017-11-23T02:14:02.146Z,97495.91
2017-11-23T02:16:30.463Z,97489.61
2017-11-23T02:18:58.735Z,97494.68
2017-11-23T02:21:27.169Z,97493.33
2017-11-23T02:23:55.450Z,97486.36
2017-11-23T02:26:23.777Z,97486.45
2017-11-23T02:28:52.162Z,97487.41
2017-11-23T02:31:21.669Z,97493.06
2017-11-23T02:33:50.808Z,97488.41
2017-11-23T02:36:19.156Z,97477.17
2017-11-23T02:38:48.247Z,97474.97
2017-11-23T02:41:17.531Z,97468.77
2017-11-23T02:43:46.789Z,97468.59
2017-11-23T02:46:15.291Z,97461.48
2017-11-23T02:48:43.602Z,97461.86
2017-11-23T02:51:12.038Z,97454.55
2017-11-23T02:53:40.565Z,97450.84
2017-11-23T02:56:09.151Z,97459.30
2017-11-23T02:58:38.386Z,97462.48
2017-11-23T03:01:10.979Z,97456.95
2017-11-23T03:03:40.324Z,97453.09
2017-11-23T03:06:08.782Z,97454.45
2017-11-23T03:08:37.291Z,97455.61
2017-11-23T03:11:05.737Z,97454.27
2017-11-23T03:13:34.039Z,97447.41
2017-11-23T03:16:02.664Z,97448.34
2017-11-23T03:18:32.344Z,97438.32
2017-11-23T03:21:00.617Z,97428.48
2017-11-23T03:23:29.009Z,97428.94
2017-11-23T03:25:57.390Z,97429.88
2017-11-23T03:28:25.703Z,97430.22
2017-11-23T03:30:54.548Z,97440.16
2017-11-23T03:33:22.942Z,97439.75
2017-11-23T03:35:52.198Z,97429.70
2017-11-23T03:38:20.617Z,97440.34
2017-11-23T03:40:49.035Z,97427.28
2017-11-23T03:43:19.376Z,97415.11
2017-11-23T03:45:47.743Z,97423.19
2017-11-23T03:48:16.089Z,97419.80
2017-11-23T03:50:44.427Z,97415.25
2017-11-23T03:53:12.738Z,97422.88
2017-11-23T03:55:41.254Z,97421.70
2017-11-23T03:58:11.877Z,97426.47
2017-11-23T04:00:41.096Z,97416.59
2017-11-23T04:03:10.262Z,97405.64
2017-11-23T04:05:38.749Z,97412.67
2017-11-23T04:08:07.084Z,97406.33
2017-11-23T04:10:35.438Z,97410.09
2017-11-23T04:13:03.876Z,97408.70
2017-11-23T04:15:32.174Z,97412.64
2017-11-23T04:18:03.106Z,97417.13
2017-11-23T04:20:31.761Z,97403.82
2017-11-23T04:23:01.004Z,97409.72
2017-11-23T04:25:30.238Z,97405.34
2017-11-23T04:27:58.827Z,97402.40
2017-11-23T04:30:28.794Z,97388.75
2017-11-23T04:32:57.392Z,97397.67
2017-11-23T04:35:26.524Z,97399.98
2017-11-23T04:37:54.863Z,97410.91
2017-11-23T04:40:24.238Z,97416.41
2017-11-23T04:42:52.901Z,97422.83
2017-11-23T04:45:21.216Z,97423.30
2017-11-23T04:47:50.496Z,97421.27
2017-11-23T04:50:18.957Z,97413.33
2017-11-23T04:52:47.279Z,97414.37
2017-11-23T04:55:15.579Z,97420.11
2017-11-23T04:57:44.914Z,97414.23
2017-11-23T05:00:13.208Z,97407.69
2017-11-23T05:02:41.544Z,97422.59
2017-11-23T05:05:10.593Z,97413.62
2017-11-23T05:07:38.899Z,97412.03
2017-11-23T05:10:07.221Z,97415.25
2017-11-23T05:12:35.516Z,97407.11
2017-11-23T05:15:03.936Z,97415.32
2017-11-23T05:17:32.317Z,97415.66
2017-11-23T05:20:01.486Z,97416.92
2017-11-23T05:22:29.798Z,97421.16
2017-11-23T05:24:58.965Z,97415.77
2017-11-23T05:27:28.421Z,97406.59
2017-11-23T05:29:57.174Z,97408.84
2017-11-23T05:32:25.653Z,97414.00
2017-11-23T05:34:54.475Z,97410.61
2017-11-23T05:37:24.169Z,97412.74
2017-11-23T05:39:52.424Z,97415.13
2017-11-23T05:42:20.716Z,97410.67
2017-11-23T05:44:48.990Z,97407.28
2017-11-23T05:47:17.304Z,97414.58
2017-11-23T05:49:46.360Z,97414.38
2017-11-23T05:52:14.656Z,97412.50
2017-11-23T05:54:42.938Z,97416.58
2017-11-23T05:57:11.439Z,97403.63
2017-11-23T05:59:39.830Z,97406.23
2017-11-23T06:02:08.172Z,97407.76
2017-11-23T06:04:36.432Z,97409.93
2017-11-23T06:07:04.854Z,97413.90
2017-11-23T06:09:33.155Z,97415.77
2017-11-23T06:12:01.840Z,97417.73
2017-11-23T06:14:30.166Z,97417.73
2017-11-23T06:16:58.484Z,97420.72
2017-11-23T06:19:27.033Z,97420.62
2017-11-23T06:21:55.303Z,97417.66
2017-11-23T06:24:23.878Z,97412.44
2017-11-23T06:26:52.176Z,97405.34
2017-11-23T06:29:20.435Z,97413.52
2017-11-23T06:31:48.739Z,97411.48
2017-11-23T06:34:17.144Z,97417.56
2017-11-23T06:36:45.716Z,97414.17
2017-11-23T06:39:14.770Z,97405.58
2017-11-23T06:41:43.048Z,97411.31
2017-11-23T06:44:11.349Z,97418.13
2017-11-23T06:46:39.609Z,97417.42
2017-11-23T06:49:07.913Z,97420.67
2017-11-23T06:51:36.267Z,97424.59
2017-11-23T06:54:04.562Z,97425.72
2017-11-23T06:56:32.890Z,97427.17
2017-11-23T06:59:01.184Z,97427.97
2017-11-23T07:01:29.476Z,97435.37
2017-11-23T07:03:57.752Z,97440.30
2017-11-23T07:06:26.009Z,97436.92
2017-11-23T07:08:55.026Z,97439.50
2017-11-23T07:11:23.284Z,97447.45
2017-11-23T07:13:51.565Z,97450.08
2017-11-23T07:16:19.833Z,97448.27
2017-11-23T07:18:48.127Z,97443.15
2017-11-23T07:21:16.400Z,97444.47
2017-11-23T07:23:44.691Z,97447.33
2017-11-23T07:26:12.952Z,97441.59
2017-11-23T07:28:41.220Z,97448.72
2017-11-23T07:31:09.497Z,97450.38
2017-11-23T07:33:37.777Z,97450.67
2017-11-23T07:36:06.078Z,97460.89
2017-11-23T07:38:34.358Z,97453.83
2017-11-23T07:41:02.651Z,97458.31
2017-11-23T07:43:30.941Z,97450.16
2017-11-23T07:45:59.230Z,97447.11
2017-11-23T07:48:28.264Z,97446.79
2017-11-23T07:50:56.603Z,97445.98
2017-11-23T07:53:24.931Z,97445.85
2017-11-23T07:55:53.200Z,97453.11
2017-11-23T07:58:21.494Z,97455.55
2017-11-23T08:00:49.760Z,97453.30
2017-11-23T08:03:18.077Z,97454.00
2017-11-23T08:05:46.366Z,97448.98
2017-11-23T08:08:14.644Z,97441.88
2017-11-23T08:10:42.939Z,97440.99
2017-11-23T08:13:11.989Z,97445.75
2017-11-23T08:15:41.067Z,97444.66
2017-11-23T08:18:09.337Z,97447.23
2017-11-23T08:20:37.635Z,97446.65
2017-11-23T08:23:05.922Z,97440.19
2017-11-23T08:25:34.221Z,97437.59
2017-11-23T08:28:02.516Z,97440.16
2017-11-23T08:30:31.549Z,97439.81
2017-11-23T08:32:59.819Z,97439.48
2017-11-23T08:35:28.112Z,97443.65
2017-11-23T08:37:57.242Z,97439.53
2017-11-23T08:40:26.002Z,97442.34
2017-11-23T08:42:54.293Z,97447.37
2017-11-23T08:45:23.064Z,97447.14
2017-11-23T08:47:51.341Z,97442.28
2017-11-23T08:50:19.630Z,97436.70
2017-11-23T08:52:47.923Z,97438.72
2017-11-23T08:55:16.201Z,97428.09
2017-11-23T08:57:44.875Z,97436.77
2017-11-23T09:00:13.462Z,97432.45
2017-11-23T09:02:42.519Z,97435.62
2017-11-23T09:05:10.833Z,97427.77
2017-11-23T09:07:39.138Z,97430.34
2017-11-23T09:10:07.401Z,97432.45
2017-11-23T09:12:40.566Z,97437.80
2017-11-23T09:15:08.851Z,97433.08
2017-11-23T09:17:37.106Z,97432.17
2017-11-23T09:20:05.414Z,97433.92
2017-11-23T09:22:33.668Z,97441.37
2017-11-23T09:25:02.696Z,97443.73
2017-11-23T09:27:30.983Z,97454.56
2017-11-23T09:29:59.249Z,97448.59
2017-11-23T09:32:27.516Z,97444.86
2017-11-23T09:34:55.795Z,97449.41
2017-11-23T09:37:24.072Z,97438.60
2017-11-23T09:39:52.352Z,97432.44
2017-11-23T09:42:20.616Z,97425.27
2017-11-23T09:44:48.865Z,97428.41
2017-11-23T09:47:17.160Z,97438.50
2017-11-23T09:49:45.445Z,97447.53
2017-11-23T09:52:13.729Z,97439.96
2017-11-23T09:54:41.984Z,97446.22
2017-11-23T09:57:10.252Z,97442.20
2017-11-23T09:59:38.578Z,97444.50
2017-11-23T10:02:06.854Z,97451.41
2017-11-23T10:04:35.166Z,97445.48
2017-11-23T10:07:04.189Z,97456.25
2017-11-23T10:09:32.454Z,97453.69
2017-11-23T10:12:00.752Z,97451.75
2017-11-23T10:14:34.565Z,97451.64
2017-11-23T10:17:02.854Z,97449.22
2017-11-23T10:19:31.131Z,97439.74
2017-11-23T10:21:59.395Z,97446.97
2017-11-23T10:24:28.587Z,97439.91
2017-11-23T10:26:56.859Z,97443.10
2017-11-23T10:29:25.147Z,97438.02
2017-11-23T10:31:53.418Z,97438.69
2017-11-23T10:34:21.681Z,97438.97
2017-11-23T10:36:49.980Z,97433.34
2017-11-23T10:39:18.257Z,97432.94
2017-11-23T10:41:46.539Z,97428.98
2017-11-23T10:44:14.833Z,97432.30
2017-11-23T10:46:43.116Z,97426.29
2017-11-23T10:49:11.387Z,97428.76
2017-11-23T10:51:39.679Z,97428.94
2017-11-23T10:54:07.957Z,97427.55
2017-11-23T10:56:36.263Z,97423.09
2017-11-23T10:59:04.560Z,97438.97
2017-11-23T11:01:32.835Z,97436.03
2017-11-23T11:04:01.875Z,97444.38
2017-11-23T11:06:30.173Z,97448.72
2017-11-23T11:08:58.502Z,97442.36
2017-11-23T11:11:26.869Z,97446.80
2017-11-23T11:13:55.132Z,97439.16
2017-11-23T11:16:23.402Z,97439.61
2017-11-23T11:18:51.961Z,97449.59
2017-11-23T11:21:20.232Z,97447.66
2017-11-23T11:23:48.520Z,97445.31
2017-11-23T11:26:17.282Z,97445.91
2017-11-23T11:28:45.583Z,97438.79
2017-11-23T11:31:13.845Z,97443.25
2017-11-23T11:33:42.123Z,97450.27
2017-11-23T11:36:10.394Z,97440.82
2017-11-23T11:38:38.681Z,97431.94
2017-11-23T11:41:07.016Z,97438.80
2017-11-23T11:43:35.285Z,97442.13
2017-11-23T11:46:04.349Z,97465.38
2017-11-23T11:48:32.630Z,97456.79
2017-11-23T11:51:00.930Z,97467.73
2017-11-23T11:53:29.193Z,97458.71
2017-11-23T11:55:57.456Z,97461.20
2017-11-23T11:58:30.993Z,97443.65
2017-11-23T12:01:03.514Z,97444.94
2017-11-23T12:03:32.503Z,97457.73
2017-11-23T12:06:00.774Z,97439.50
2017-11-23T12:08:29.051Z,97456.88
2017-11-23T12:10:57.329Z,97443.34
2017-11-23T12:13:25.611Z,97439.63
2017-11-23T12:16:12.856Z,97444.59
2017-11-23T12:22:20.080Z,97435.69
2017-11-23T12:25:02.765Z,97433.60
2017-11-23T12:27:48.572Z,97432.25
2017-11-23T12:30:16.865Z,97429.02
2017-11-23T12:32:46.156Z,97429.38
2017-11-23T12:35:14.717Z,97431.74
2017-11-23T12:37:43.016Z,97436.73
2017-11-23T12:40:11.297Z,97433.82
2017-11-23T12:42:39.566Z,97439.69
2017-11-23T12:45:07.839Z,97437.00
2017-11-23T12:47:36.124Z,97442.66
2017-11-23T12:50:05.621Z,97435.58
2017-11-23T12:52:33.898Z,97435.88
2017-11-23T12:55:02.175Z,97442.66
2017-11-23T12:57:30.456Z,97447.56
2017-11-23T12:59:58.717Z,97438.13
2017-11-23T13:02:27.007Z,97454.61
2017-11-23T13:04:55.274Z,97443.08
2017-11-23T13:07:23.558Z,97450.33
2017-11-23T13:09:51.846Z,97452.17
2017-11-23T13:12:20.887Z,97451.47
2017-11-23T13:14:49.202Z,97451.98
2017-11-23T13:17:17.479Z,97446.72
2017-11-23T13:19:45.810Z,97461.28
2017-11-23T13:22:14.104Z,97454.91
2017-11-23T13:24:42.366Z,97455.37
2017-11-23T13:27:10.650Z,97459.61
2017-11-23T13:29:39.712Z,97467.16
2017-11-23T13:32:08.616Z,97472.11
2017-11-23T13:34:36.929Z,97478.56
2017-11-23T13:37:05.194Z,97477.89
2017-11-23T13:39:34.245Z,97481.23
2017-11-23T13:42:02.511Z,97483.39
2017-11-23T13:44:30.770Z,97485.37
2017-11-23T13:46:59.069Z,97484.77
2017-11-23T13:49:27.324Z,97486.08
2017-11-23T13:51:55.615Z,97474.02
2017-11-23T13:54:23.873Z,97482.44
2017-11-23T13:56:52.179Z,97485.57
2017-11-23T13:59:20.470Z,97486.37
2017-11-23T14:01:48.751Z,97499.34
2017-11-23T14:04:17.043Z,97499.39
2017-11-23T14:06:45.702Z,97496.72
2017-11-23T14:09:13.971Z,97500.45
2017-11-23T14:11:42.251Z,97509.06
2017-11-23T14:14:10.545Z,97511.77
2017-11-23T14:16:38.817Z,97521.52
2017-11-23T14:19:07.080Z,97511.43
2017-11-23T14:21:35.376Z,97512.49
2017-11-23T14:24:04.755Z,97515.84
2017-11-23T14:26:33.273Z,97507.53
2017-11-23T14:29:01.555Z,97515.06
2017-11-23T14:31:29.828Z,97516.08
2017-11-23T14:33:58.115Z,97508.36
2017-11-23T14:36:26.377Z,97520.59
2017-11-23T14:38:54.677Z,97524.73
2017-11-23T14:41:22.954Z,97536.81
2017-11-23T14:43:51.610Z,97534.62
2017-11-23T14:46:19.930Z,97527.55
2017-11-23T14:48:48.187Z,97537.30
2017-11-23T14:51:16.490Z,97540.05
2017-11-23T14:53:44.829Z,97537.83
2017-11-23T14:56:13.107Z,97544.74
2017-11-23T14:58:41.384Z,97535.03
2017-11-23T15:01:09.675Z,97540.80
2017-11-23T15:03:37.978Z,97545.14
2017-11-23T15:06:06.271Z,97544.48
2017-11-23T15:08:35.314Z,97550.10
2017-11-23T15:11:03.639Z,97546.63
2017-11-23T15:13:31.900Z,97549.79
2017-11-23T15:16:00.230Z,97546.16
2017-11-23T15:18:28.527Z,97557.02
2017-11-23T15:20:56.800Z,97564.42
2017-11-23T15:23:26.338Z,97562.75
2017-11-23T15:25:54.628Z,97566.98
2017-11-23T15:28:22.912Z,97573.45
2017-11-23T15:30:51.197Z,97577.20
2017-11-23T15:33:20.258Z,97583.48
2017-11-23T15:35:48.545Z,97582.54
2017-11-23T15:38:17.571Z,97599.83
2017-11-23T15:40:46.630Z,97595.84
2017-11-23T15:43:14.919Z,97600.16
2017-11-23T15:45:43.196Z,97604.95
2017-11-23T15:48:12.219Z,97608.36
2017-11-23T15:50:41.246Z,97603.88
2017-11-23T15:53:09.508Z,97605.39
2017-11-23T15:55:37.801Z,97610.69
2017-11-23T15:58:06.070Z,97616.05
2017-11-23T16:00:34.336Z,97611.19
2017-11-23T16:03:02.611Z,97613.96
2017-11-23T16:05:30.872Z,97616.13
2017-11-23T16:07:59.946Z,97630.00
2017-11-23T16:10:28.234Z,97619.86
2017-11-23T16:12:56.512Z,97622.42
2017-11-23T16:15:24.812Z,97627.11
2017-11-23T16:17:53.859Z,97637.69
2017-11-23T16:20:22.133Z,97633.27
2017-11-23T16:22:50.444Z,97638.13
2017-11-23T16:25:19.486Z,97640.75
2017-11-23T16:28:02.504Z,97638.90
2017-11-23T16:30:30.782Z,97641.05
2017-11-23T16:32:59.056Z,97643.11
2017-11-23T16:35:27.344Z,97645.44
2017-11-23T16:37:56.526Z,97648.91
2017-11-23T16:43:27.165Z,97660.54
2017-11-23T16:46:06.489Z,97661.83
2017-11-23T16:48:41.069Z,97661.41
2017-11-23T16:51:14.809Z,97661.26
2017-11-23T16:53:48.502Z,97670.49
2017-11-23T16:56:22.191Z,97673.32
2017-11-23T16:58:51.576Z,97684.95
2017-11-23T17:01:26.397Z,97676.06
2017-11-23T17:04:06.363Z,97681.86
2017-11-23T17:06:57.630Z,97676.72
2017-11-23T17:09:28.896Z,97669.79
2017-11-23T17:12:02.759Z,97676.57
2017-11-23T17:17:40.547Z,97686.70
2017-11-23T17:20:08.831Z,97694.27
2017-11-23T17:22:37.107Z,97704.88
2017-11-23T17:25:05.404Z,97713.81
2017-11-23T17:27:33.697Z,97731.47
2017-11-23T17:30:01.984Z,97725.73
2017-11-23T17:32:30.292Z,97731.19
2017-11-23T17:34:58.598Z,97738.25
2017-11-23T17:58:35.643Z,97733.11
2017-11-23T18:19:06.832Z,97741.21
2017-11-23T18:39:38.790Z,97740.83
2017-11-23T19:00:15.910Z,97737.58
2017-11-23T19:20:51.179Z,97770.23
2017-11-23T19:41:24.882Z,97781.23
2017-11-23T20:02:02.973Z,97791.83
2017-11-23T20:22:36.180Z,97792.73
2017-11-23T20:43:10.350Z,97804.67
2017-11-23T21:03:45.391Z,97809.45
2017-11-23T21:24:22.880Z,97834.44
2017-11-23T21:44:59.117Z,97840.89
2017-11-23T22:05:32.121Z,97845.77
2017-11-23T22:26:09.577Z,97847.98
2017-11-23T22:46:43.865Z,97864.30
2017-11-23T23:07:20.706Z,97859.73
2017-11-23T23:27:56.894Z,97849.67
2017-11-23T23:48:33.090Z,97842.78
